KBQK/BQK METAR and TAF weather

Enter ICAO airport designator
Station Type Date Time Source
KBQK METAR 2022/06/28 09:55 UTC NOAA

KBQK 280955Z AUTO 00000KT 2SM BR CLR 22/21 A3006 RMK AO2 T02160213


Station Type Date Time Source
KBQK Decoded METAR 2022/06/28 09:55 UTC NOAA

Brunswick / Glynco, GA, United States (KBQK) 31-15N 081-28W
Jun 28, 2022 - 05:55 AM EDT / 2022.06.28 0955 UTC
Wind: Calm:0
Visibility: 2 mile(s):0
Sky conditions: clear
Weather: mist
Temperature: 70.9 F (21.6 C)
Dew Point: 70.3 F (21.3 C)
Relative Humidity: 98%
Pressure (altimeter): 30.06 in. Hg (1017 hPa)
ob: KBQK 280955Z AUTO 00000KT 2SM BR CLR 22/21 A3006 RMK AO2 T02160213
cycle: 10

Station Type Date Time Source
KBQK TAF UTC NOAA

Error!

Example: see airport list